WetterOnline ( https://www.wetteronline.de )

Wetter aktuell Kempten/Allgäu

Aktuelles Wetter: Kempten (705m)

6-stündlich | Neueste Meldungen
Ortszeit Temperatur Wetter
Mi, 19.02. 1:00 3.0° C leicht bewölkt
Di, 18.02. 19:00 3.3° C wolkenlos
Di, 18.02. 13:00 6.7° C wolkig
Di, 18.02. 7:00 3.6° C bewölkt
Di, 18.02. 1:00 4.9° C Regen
Mo, 17.02. 19:00 5.9° C Sprühregen
Mo, 17.02. 13:00 15.7° C bedeckt
Mo, 17.02. 7:00 7.0° C wolkig
Ortszeit Temperatur Wetter
Mi, 19.02. 4:30 4.3° C bedeckt
Mi, 19.02. 4:20 4.3° C bedeckt
Mi, 19.02. 4:10 4.3° C bedeckt
Mi, 19.02. 4:00 4.3° C bedeckt
Mi, 19.02. 3:50 4.3° C bedeckt
Mi, 19.02. 3:40 4.2° C bedeckt
Mi, 19.02. 3:30 4.2° C bedeckt
Mi, 19.02. 3:00 4.0° C bewölkt
Ortszeit Relative Feuchte Sichtweite
Mi, 19.02. 1:00 65% 55 km
Di, 18.02. 19:00 71% 50 km
Di, 18.02. 13:00 50% 14 km
Di, 18.02. 7:00 73% 55 km
Di, 18.02. 1:00 79% 70 km
Mo, 17.02. 19:00 85% 50 km
Mo, 17.02. 13:00 41% 30 km
Mo, 17.02. 7:00 62% 70 km
Ortszeit Relative Feuchte Sichtweite
Mi, 19.02. 4:30 53% 65 km
Mi, 19.02. 4:20 53% -
Mi, 19.02. 4:10 53% -
Mi, 19.02. 4:00 54% 70 km
Mi, 19.02. 3:50 54% -
Mi, 19.02. 3:40 55% -
Mi, 19.02. 3:30 55% 65 km
Mi, 19.02. 3:00 58% 70 km
Ortszeit Niederschlagsmenge Niederschlagsart
Mi, 19.02. 1:00 0.0 l/m2 in 6 Std. -
Di, 18.02. 19:00 0.0 l/m2 in 12 Std. -
Di, 18.02. 13:00 0.0 l/m2 in 6 Std. -
Di, 18.02. 7:00 1 l/m2 in 12 Std. Regen
Di, 18.02. 1:00 1 l/m2 in 6 Std. Regen
Mo, 17.02. 19:00 1 l/m2 in 12 Std. Regen
Mo, 17.02. 13:00 0.0 l/m2 in 6 Std. -
Mo, 17.02. 7:00 0.0 l/m2 in 12 Std. -
Ortszeit Niederschlagsmenge Niederschlagsart
Mi, 19.02. 4:30 0.0 l/m2 in 1 Std. -
Mi, 19.02. 4:20 keine Meldung -
Mi, 19.02. 4:10 keine Meldung -
Mi, 19.02. 4:00 0.0 l/m2 in 1 Std. -
Mi, 19.02. 3:50 keine Meldung -
Mi, 19.02. 3:40 keine Meldung -
Mi, 19.02. 3:30 0.0 l/m2 in 1 Std. -
Mi, 19.02. 3:00 0.0 l/m2 in 1 Std. -
Ortszeit Stärke Spitze Richtung
km/h Bft. km/h Grad Sektor
Mi, 19.02. 1:00 13 3 28 230° SW
Di, 18.02. 19:00 4 1 47 210° SW
Di, 18.02. 13:00 19 3 48 260° W
Di, 18.02. 7:00 9 2 44 240° SW
Di, 18.02. 1:00 20 4 44 250° W
Mo, 17.02. 19:00 13 3 48 200° S
Mo, 17.02. 13:00 11 2 36 250° W
Mo, 17.02. 7:00 4 1 18 180° S
Ortszeit Stärke Spitze Richtung
km/h Bft. km/h Grad Sektor
Mi, 19.02. 4:30 11 2 22 210° SW
Mi, 19.02. 4:20 11 2 - 210° SW
Mi, 19.02. 4:10 9 2 - 210° SW
Mi, 19.02. 4:00 9 2 20 220° SW
Mi, 19.02. 3:50 9 2 - 220° SW
Mi, 19.02. 3:40 7 2 - 230° SW
Mi, 19.02. 3:30 9 2 19 220° SW
Mi, 19.02. 3:00 9 2 26 220° SW
Ortszeit Untergrenze Bedeckung Gattung
total tief tief mittel hoch
Mi, 19.02. 1:00 6000 m 2/8 2/8 - - -
Di, 18.02. 19:00 - 0/8 0/8 - - -
Di, 18.02. 13:00 1110 m 5/8 5/8 - - -
Di, 18.02. 7:00 810 m 7/8 7/8 - - -
Di, 18.02. 1:00 540 m 7/8 7/8 - - -
Mo, 17.02. 19:00 540 m 8/8 8/8 - - -
Mo, 17.02. 13:00 3600 m 8/8 8/8 - - -
Mo, 17.02. 7:00 7500 m 8/8 0/8 - - -
Ortszeit Bedeckungsgrad in Achtel und Wolkenuntergrenze
Mi, 19.02. 4:30 6(1470m) 8(1500m)
Mi, 19.02. 4:20 6(1470m) 8(1500m)
Mi, 19.02. 4:10 7(1470m) 8(1500m)
Mi, 19.02. 4:00 5(1470m) 8(1500m)
Mi, 19.02. 3:50 5(1470m) 8(1500m)
Mi, 19.02. 3:40 3(1470m) 8(1800m)
Mi, 19.02. 3:30 8(1500m) 8(1500m)
Mi, 19.02. 3:00 7(1500m)
Ortszeit Luftdruck NN (hPa) Tendenz (hPa in 3 Std.)
Mi, 19.02. 1:00 1027 - 2,2
Di, 18.02. 19:00 1029 + 0,4
Di, 18.02. 13:00 1029 - 0,5
Di, 18.02. 7:00 1029 + 0,5
Di, 18.02. 1:00 1027 + 1,1
Mo, 17.02. 19:00 1023 + 2,0
Mo, 17.02. 13:00 1016 - 0,4
Mo, 17.02. 7:00 1019 - 0,2
Ortszeit Luftdruck NN (hPa) Tendenz (hPa in 3 Std.)
Mi, 19.02. 4:30 1024 - 2,0
Mi, 19.02. 4:20 1024 keine Meldung
Mi, 19.02. 4:10 1024 keine Meldung
Mi, 19.02. 4:00 1024 - 2,0
Mi, 19.02. 3:50 1024 keine Meldung
Mi, 19.02. 3:40 1024 keine Meldung
Mi, 19.02. 3:30 1024 - 2,3
Mi, 19.02. 3:00 1025 - 2,1
Ortszeit Schneehöhe (cm)
Mi, 19.02. 1:00 0
Di, 18.02. 19:00 0
Di, 18.02. 13:00 0
Di, 18.02. 7:00 0
Di, 18.02. 1:00 0
Mo, 17.02. 19:00 0
Mo, 17.02. 13:00 0
Mo, 17.02. 7:00 0
Ortszeit Schneehöhe (cm)
Mi, 19.02. 4:30 0
Mi, 19.02. 4:20 0
Mi, 19.02. 4:10 0
Mi, 19.02. 4:00 0
Mi, 19.02. 3:50 0
Mi, 19.02. 3:40 0
Mi, 19.02. 3:30 0
Mi, 19.02. 3:00 0
Link zu dieser Seite / Seite empfehlen

Das Wetter in ...